createdAt,value
2023-03-18T00:01:07.175Z,7.07
2023-03-18T00:03:37.320Z,4.90
2023-03-18T00:06:05.168Z,7.50
2023-03-18T00:08:32.829Z,5.77
2023-03-18T00:10:59.235Z,5.30
2023-03-18T00:13:25.970Z,4.80
2023-03-18T00:15:52.702Z,7.37
2023-03-18T00:18:20.064Z,4.17
2023-03-18T00:20:46.507Z,9.93
2023-03-18T00:23:13.011Z,9.70
2023-03-18T00:25:39.583Z,10.27
2023-03-18T00:28:07.491Z,8.13
2023-03-18T00:30:37.761Z,6.93
2023-03-18T00:33:05.166Z,6.30
2023-03-18T00:35:32.238Z,5.37
2023-03-18T00:37:58.882Z,6.67
2023-03-18T00:40:42.843Z,5.17
2023-03-18T00:43:10.995Z,4.47
2023-03-18T00:45:38.667Z,4.07
2023-03-18T00:48:05.270Z,5.13
2023-03-18T00:50:32.062Z,11.40
2023-03-18T00:52:59.494Z,7.77
2023-03-18T00:55:27.425Z,4.17
2023-03-18T00:57:54.668Z,3.00
2023-03-18T01:00:21.411Z,3.40
2023-03-18T01:02:49.222Z,3.50
2023-03-18T01:05:16.430Z,2.93
2023-03-18T01:07:43.598Z,3.50
2023-03-18T01:10:12.603Z,3.30
2023-03-18T01:12:41.109Z,3.43
2023-03-18T01:15:12.683Z,3.40
2023-03-18T01:17:39.375Z,3.57
2023-03-18T01:20:07.236Z,3.80
2023-03-18T01:22:33.653Z,4.00
2023-03-18T01:25:00.123Z,4.13
2023-03-18T01:27:34.442Z,3.90
2023-03-18T01:30:00.934Z,4.23
2023-03-18T01:32:28.779Z,4.27
2023-03-18T01:34:55.504Z,3.97
2023-03-18T01:39:55.863Z,4.53
2023-03-18T01:42:23.822Z,4.87
2023-03-18T01:44:50.703Z,4.83
2023-03-18T01:47:17.401Z,5.23
2023-03-18T01:49:52.281Z,5.70
2023-03-18T01:52:27.526Z,5.30
2023-03-18T01:55:05.388Z,5.30
2023-03-18T01:57:33.476Z,5.47
2023-03-18T02:00:00.636Z,6.07
2023-03-18T02:02:30.033Z,6.37
2023-03-18T02:05:01.731Z,6.10
2023-03-18T02:07:35.922Z,6.20
2023-03-18T02:12:38.481Z,6.67
2023-03-18T02:15:13.819Z,7.17
2023-03-18T02:17:45.081Z,7.37
2023-03-18T02:20:38.628Z,7.40
2023-03-18T02:23:25.625Z,7.63
2023-03-18T02:25:59.263Z,7.67
2023-03-18T02:28:29.780Z,8.13
2023-03-18T02:31:03.985Z,7.83
2023-03-18T02:33:38.724Z,7.83
2023-03-18T02:36:11.335Z,8.27
2023-03-18T02:38:42.907Z,7.70
2023-03-18T02:41:19.363Z,8.73
2023-03-18T02:43:47.403Z,7.90
2023-03-18T02:46:32.382Z,8.67
2023-03-18T02:49:02.629Z,8.60
2023-03-18T02:51:30.454Z,8.17
2023-03-18T02:54:03.226Z,8.23
2023-03-18T02:56:30.111Z,9.00
2023-03-18T02:58:57.785Z,9.13
2023-03-18T03:01:24.841Z,8.77
2023-03-18T03:03:51.852Z,9.50
2023-03-18T03:06:18.401Z,9.10
2023-03-18T03:08:45.641Z,9.20
2023-03-18T03:11:12.642Z,9.07
2023-03-18T03:13:42.573Z,9.33
2023-03-18T03:16:12.200Z,9.33
2023-03-18T03:18:39.070Z,10.03
2023-03-18T03:21:06.539Z,9.07
2023-03-18T03:23:33.451Z,8.17
2023-03-18T03:26:00.168Z,9.80
2023-03-18T03:28:28.613Z,9.70
2023-03-18T03:30:55.773Z,10.10
2023-03-18T03:33:22.883Z,9.73
2023-03-18T03:35:49.634Z,8.93
2023-03-18T03:38:16.157Z,9.60
2023-03-18T03:40:43.542Z,10.33
2023-03-18T03:43:13.160Z,10.33
2023-03-18T03:45:41.885Z,9.63
2023-03-18T03:48:09.041Z,9.90
2023-03-18T03:50:37.626Z,10.47
2023-03-18T03:53:04.924Z,10.50
2023-03-18T03:55:31.740Z,10.10
2023-03-18T03:57:58.273Z,10.30
2023-03-18T04:00:26.603Z,10.03
2023-03-18T04:02:54.186Z,10.30
2023-03-18T04:05:24.485Z,10.80
2023-03-18T04:07:52.268Z,11.43
2023-03-18T04:10:23.639Z,10.87
2023-03-18T04:12:50.437Z,10.57
2023-03-18T04:15:19.638Z,11.83
2023-03-18T04:17:49.394Z,11.77
2023-03-18T04:20:18.690Z,11.73
2023-03-18T04:22:46.649Z,10.93
2023-03-18T04:25:16.856Z,11.77
2023-03-18T04:27:43.950Z,11.97
2023-03-18T04:30:13.920Z,11.67
2023-03-18T04:32:56.767Z,12.20
2023-03-18T04:35:23.503Z,11.67
2023-03-18T04:37:50.741Z,12.27
2023-03-18T04:40:18.315Z,12.27
2023-03-18T04:42:47.667Z,11.97
2023-03-18T04:45:16.246Z,12.23
2023-03-18T04:47:45.387Z,11.70
2023-03-18T04:50:14.209Z,11.97
2023-03-18T04:52:42.692Z,11.50
2023-03-18T04:55:14.025Z,11.53
2023-03-18T04:57:42.527Z,11.03
2023-03-18T05:00:17.243Z,11.50
2023-03-18T05:02:45.967Z,11.47
2023-03-18T05:05:12.879Z,10.63
2023-03-18T05:07:45.233Z,10.37
2023-03-18T05:10:14.638Z,11.07
2023-03-18T05:12:42.077Z,10.73
2023-03-18T05:15:12.147Z,11.40
2023-03-18T05:17:43.100Z,11.40
2023-03-18T05:20:10.675Z,10.80
2023-03-18T05:22:37.557Z,11.23
2023-03-18T05:25:13.067Z,10.53
2023-03-18T05:27:40.509Z,10.97
2023-03-18T05:30:15.358Z,11.60
2023-03-18T05:32:45.701Z,11.70
2023-03-18T05:35:13.837Z,11.30
2023-03-18T05:37:50.429Z,11.30
2023-03-18T05:40:17.684Z,11.53
2023-03-18T05:42:57.285Z,10.90
2023-03-18T05:45:33.701Z,11.10
2023-03-18T05:48:00.502Z,11.33
2023-03-18T05:50:35.510Z,11.07
2023-03-18T05:53:06.213Z,11.23
2023-03-18T05:55:36.647Z,10.40
2023-03-18T05:58:03.910Z,11.30
2023-03-18T06:00:32.401Z,10.57
2023-03-18T06:03:01.717Z,10.73
2023-03-18T06:05:29.784Z,11.20
2023-03-18T06:07:56.977Z,10.43
2023-03-18T06:10:25.177Z,10.93
2023-03-18T06:12:52.533Z,10.37
2023-03-18T06:15:19.431Z,10.73
2023-03-18T06:17:47.222Z,10.40
2023-03-18T06:20:15.632Z,9.70
2023-03-18T06:22:43.896Z,9.63
2023-03-18T06:25:10.830Z,10.00
2023-03-18T06:27:39.224Z,10.20
2023-03-18T06:30:06.884Z,9.57
2023-03-18T06:32:35.743Z,11.87
2023-03-18T06:35:02.330Z,10.57
2023-03-18T06:37:30.502Z,9.80
2023-03-18T06:39:56.966Z,10.30
2023-03-18T06:42:23.525Z,9.87
2023-03-18T06:44:59.907Z,10.20
2023-03-18T06:47:40.057Z,12.23
2023-03-18T06:50:07.387Z,11.40
2023-03-18T06:52:37.287Z,10.80
2023-03-18T06:55:11.534Z,9.87
2023-03-18T06:57:41.482Z,9.67
2023-03-18T07:00:10.503Z,9.20
2023-03-18T07:02:39.529Z,9.10
2023-03-18T07:05:08.708Z,9.77
2023-03-18T07:07:39.936Z,10.97
2023-03-18T07:10:08.835Z,11.50
2023-03-18T07:12:36.005Z,9.67
2023-03-18T07:15:03.401Z,9.03
2023-03-18T07:17:29.821Z,8.87
2023-03-18T07:19:57.174Z,8.33
2023-03-18T07:22:24.619Z,7.80
2023-03-18T07:24:52.294Z,7.97
2023-03-18T07:27:18.698Z,7.73
2023-03-18T07:29:45.130Z,7.40
2023-03-18T07:32:11.664Z,7.53
2023-03-18T07:34:38.104Z,7.50
2023-03-18T07:37:04.546Z,7.20
2023-03-18T07:39:31.792Z,6.80
2023-03-18T07:41:58.259Z,6.23
2023-03-18T07:44:29.303Z,6.87
2023-03-18T07:46:55.904Z,6.60
2023-03-18T07:49:23.733Z,5.70
2023-03-18T07:51:50.327Z,6.50
2023-03-18T07:54:17.949Z,5.90
2023-03-18T07:56:44.565Z,6.20
2023-03-18T07:59:12.277Z,5.90
2023-03-18T08:01:39.834Z,5.73
2023-03-18T08:04:06.583Z,6.00
2023-03-18T08:06:34.336Z,6.23
2023-03-18T08:09:02.590Z,5.73
2023-03-18T08:11:29.168Z,6.00
2023-03-18T08:13:55.715Z,5.67
2023-03-18T08:16:22.973Z,5.67
2023-03-18T08:18:49.471Z,5.27
2023-03-18T08:21:16.105Z,5.57
2023-03-18T08:23:42.763Z,5.57
2023-03-18T08:26:09.755Z,5.93
2023-03-18T08:28:36.748Z,5.50
2023-03-18T08:31:04.907Z,5.47
2023-03-18T08:33:31.682Z,5.60
2023-03-18T08:35:59.269Z,5.40
2023-03-18T08:38:26.003Z,5.40
2023-03-18T08:40:52.473Z,5.23
2023-03-18T08:43:22.078Z,4.97
2023-03-18T08:45:54.850Z,5.30
2023-03-18T08:48:22.768Z,5.20
2023-03-18T08:50:49.540Z,5.90
2023-03-18T08:53:16.248Z,5.60
2023-03-18T08:55:42.756Z,5.57
2023-03-18T08:58:09.806Z,5.13
2023-03-18T09:00:38.971Z,5.97
2023-03-18T09:03:05.637Z,5.40
2023-03-18T09:05:32.850Z,5.50
2023-03-18T09:08:00.269Z,5.03
2023-03-18T09:10:27.566Z,5.53
2023-03-18T09:12:53.982Z,5.80
2023-03-18T09:15:20.777Z,5.27
2023-03-18T09:18:03.705Z,5.57
2023-03-18T09:20:34.889Z,6.07
2023-03-18T09:23:03.926Z,5.83
2023-03-18T09:25:30.877Z,5.50
2023-03-18T09:27:57.525Z,5.70
2023-03-18T09:30:25.588Z,5.47
2023-03-18T09:32:52.103Z,6.10
2023-03-18T09:35:18.669Z,5.23
2023-03-18T09:37:45.280Z,6.07
2023-03-18T09:40:32.975Z,6.87
2023-03-18T09:43:21.124Z,6.13
2023-03-18T09:45:50.476Z,5.63
2023-03-18T09:48:26.340Z,6.27
2023-03-18T09:50:58.562Z,6.10
2023-03-18T09:53:41.242Z,5.63
2023-03-18T09:56:15.952Z,8.77
2023-03-18T09:58:51.757Z,6.40
2023-03-18T10:01:20.738Z,7.20
2023-03-18T10:04:11.996Z,8.03
2023-03-18T10:06:43.042Z,6.60
2023-03-18T10:09:19.182Z,6.77
2023-03-18T10:11:51.205Z,7.10
2023-03-18T10:14:26.728Z,6.97
2023-03-18T10:17:25.294Z,6.80
2023-03-18T10:19:55.996Z,7.00
2023-03-18T10:22:37.777Z,7.30
2023-03-18T10:25:21.919Z,7.57
2023-03-18T10:28:16.266Z,7.30
2023-03-18T10:31:01.401Z,8.10
2023-03-18T10:33:44.982Z,8.20
2023-03-18T10:36:27.028Z,10.70
2023-03-18T10:38:56.141Z,15.20
2023-03-18T10:41:32.066Z,15.67
2023-03-18T10:44:22.112Z,15.57
2023-03-18T10:47:07.888Z,15.20
2023-03-18T10:49:42.683Z,14.40
2023-03-18T10:52:31.056Z,15.10
2023-03-18T10:54:57.525Z,14.50
2023-03-18T10:57:24.057Z,13.73
2023-03-18T10:59:52.084Z,10.40
2023-03-18T11:02:38.989Z,11.83
2023-03-18T11:05:29.558Z,10.63
2023-03-18T11:08:09.433Z,10.60
2023-03-18T11:10:40.435Z,10.27
2023-03-18T11:13:07.034Z,10.03
2023-03-18T11:15:38.356Z,9.77
2023-03-18T11:18:05.804Z,10.20
2023-03-18T11:20:45.523Z,10.17
2023-03-18T11:23:17.920Z,10.33
2023-03-18T11:25:48.914Z,10.63
2023-03-18T11:28:34.336Z,10.57
2023-03-18T11:31:06.588Z,9.90
2023-03-18T11:33:33.290Z,9.50
2023-03-18T11:36:14.275Z,9.87
2023-03-18T11:38:40.708Z,10.43
2023-03-18T11:41:16.916Z,9.20
2023-03-18T11:44:06.995Z,9.87
2023-03-18T11:46:38.197Z,9.50
2023-03-18T11:49:06.094Z,9.00
2023-03-18T11:51:43.239Z,10.10
2023-03-18T11:54:47.694Z,10.50
2023-03-18T11:57:31.106Z,9.30
2023-03-18T12:00:43.394Z,8.77
2023-03-18T12:03:43.807Z,9.10
2023-03-18T12:06:20.395Z,8.27
2023-03-18T12:09:23.525Z,9.30
2023-03-18T12:12:37.100Z,8.93
2023-03-18T12:15:14.638Z,8.90
2023-03-18T12:17:56.859Z,8.20
2023-03-18T12:20:42.860Z,9.50
2023-03-18T12:23:30.602Z,9.03
2023-03-18T12:26:14.234Z,9.60
2023-03-18T12:29:02.957Z,8.90
2023-03-18T12:31:50.597Z,8.30
2023-03-18T12:34:53.858Z,8.83
2023-03-18T12:37:36.991Z,8.33
2023-03-18T12:40:04.808Z,8.07
2023-03-18T12:42:46.133Z,6.87
2023-03-18T12:45:17.720Z,7.20
2023-03-18T12:47:57.108Z,6.93
2023-03-18T12:50:25.670Z,6.87
2023-03-18T12:53:06.985Z,7.07
2023-03-18T12:55:38.739Z,7.03
2023-03-18T12:58:25.655Z,7.13
2023-03-18T13:01:22.146Z,7.57
2023-03-18T13:03:55.120Z,7.27
2023-03-18T13:06:43.750Z,7.90
2023-03-18T13:09:23.344Z,6.70
2023-03-18T13:12:12.664Z,7.30
2023-03-18T13:14:44.722Z,7.30
2023-03-18T13:17:24.114Z,7.03
2023-03-18T13:19:50.700Z,8.47
2023-03-18T13:22:32.594Z,8.20
2023-03-18T13:25:08.196Z,10.33
2023-03-18T13:27:53.131Z,8.63
2023-03-18T13:30:41.089Z,8.03
2023-03-18T13:33:32.261Z,7.90
2023-03-18T13:36:23.438Z,9.30
2023-03-18T13:39:06.778Z,8.97
2023-03-18T13:41:52.688Z,8.03
2023-03-18T13:44:24.821Z,9.07
2023-03-18T13:47:01.649Z,8.27
2023-03-18T13:49:30.911Z,8.50
2023-03-18T13:52:03.677Z,17.47
2023-03-18T13:54:36.660Z,14.90
2023-03-18T13:57:18.661Z,9.40
2023-03-18T13:59:48.439Z,8.43
2023-03-18T14:02:39.872Z,8.30
2023-03-18T14:05:34.860Z,6.30
2023-03-18T14:08:28.095Z,6.90
2023-03-18T14:11:16.702Z,6.57
2023-03-18T14:13:44.855Z,5.80
2023-03-18T14:16:14.512Z,4.57
2023-03-18T14:18:43.065Z,4.70
2023-03-18T14:21:24.572Z,5.23
2023-03-18T14:24:15.448Z,4.77
2023-03-18T14:26:42.522Z,5.40
2023-03-18T14:29:09.543Z,5.23
2023-03-18T14:31:39.235Z,4.33
2023-03-18T14:34:17.995Z,4.40
2023-03-18T14:36:53.217Z,5.07
2023-03-18T14:39:28.847Z,5.80
2023-03-18T14:41:59.295Z,5.03
2023-03-18T14:44:44.928Z,5.30
2023-03-18T14:48:04.146Z,4.10
2023-03-18T14:50:43.094Z,3.60
2023-03-18T14:53:09.913Z,4.10
2023-03-18T14:55:37.969Z,3.53
2023-03-18T14:58:05.235Z,5.53
2023-03-18T15:00:36.761Z,3.90
2023-03-18T15:03:14.261Z,4.27
2023-03-18T15:05:42.979Z,3.90
2023-03-18T15:08:17.954Z,3.97
2023-03-18T15:10:51.491Z,3.40
2023-03-18T15:13:21.197Z,4.37
2023-03-18T15:15:49.082Z,5.67
2023-03-18T15:18:40.404Z,4.67
2023-03-18T15:21:16.448Z,3.63
2023-03-18T15:23:48.957Z,3.80
2023-03-18T15:26:34.810Z,3.60
2023-03-18T15:29:22.134Z,3.97
2023-03-18T15:31:48.812Z,3.90
2023-03-18T15:34:29.903Z,3.70
2023-03-18T15:36:59.194Z,3.47
2023-03-18T15:39:37.193Z,3.60
2023-03-18T15:42:14.973Z,3.67
2023-03-18T15:44:43.236Z,4.23
2023-03-18T15:47:25.608Z,4.93
2023-03-18T15:50:00.407Z,3.93
2023-03-18T15:52:37.800Z,5.00
2023-03-18T15:55:33.932Z,4.43
2023-03-18T15:58:03.898Z,4.03
2023-03-18T16:00:32.434Z,3.43
2023-03-18T16:02:59.688Z,3.30
2023-03-18T16:05:28.990Z,3.80
2023-03-18T16:07:55.891Z,5.30
2023-03-18T16:10:25.247Z,4.67
2023-03-18T16:12:54.845Z,4.47
2023-03-18T16:15:23.997Z,5.70
2023-03-18T16:17:55.577Z,3.73
2023-03-18T16:20:24.802Z,3.60
2023-03-18T16:22:51.999Z,4.80
2023-03-18T16:25:18.863Z,4.10
2023-03-18T16:27:48.649Z,4.60
2023-03-18T16:30:25.952Z,3.17
2023-03-18T16:32:53.845Z,3.87
2023-03-18T16:35:24.450Z,4.43
2023-03-18T16:37:51.804Z,4.07
2023-03-18T16:40:22.137Z,2.97
2023-03-18T16:42:49.462Z,3.00
2023-03-18T16:45:22.192Z,2.93
2023-03-18T16:47:51.009Z,3.40
2023-03-18T16:50:28.976Z,2.67
2023-03-18T16:52:55.604Z,2.80
2023-03-18T16:55:22.414Z,2.60
2023-03-18T16:58:02.709Z,2.50
2023-03-18T17:00:32.090Z,2.40
2023-03-18T17:03:00.034Z,2.50
2023-03-18T17:05:28.960Z,2.50
2023-03-18T17:07:55.870Z,2.27
2023-03-18T17:10:24.785Z,2.40
2023-03-18T17:12:55.448Z,2.50
2023-03-18T17:15:27.646Z,2.30
2023-03-18T17:17:58.071Z,2.13
2023-03-18T17:20:26.968Z,2.13
2023-03-18T17:22:54.181Z,2.00
2023-03-18T17:25:21.454Z,2.57
2023-03-18T17:27:54.628Z,2.23
2023-03-18T17:30:33.010Z,2.50
2023-03-18T17:33:00.548Z,1.97
2023-03-18T17:35:28.547Z,2.83
2023-03-18T17:37:55.529Z,2.53
2023-03-18T17:40:23.330Z,2.60
2023-03-18T17:42:51.685Z,2.60
2023-03-18T17:45:28.576Z,4.27
2023-03-18T17:48:13.546Z,4.33
2023-03-18T17:50:41.319Z,4.27
2023-03-18T17:53:24.193Z,4.50
2023-03-18T17:55:50.676Z,3.87
2023-03-18T17:58:18.473Z,3.57
2023-03-18T18:00:46.776Z,4.10
2023-03-18T18:03:27.254Z,3.50
2023-03-18T18:05:55.892Z,4.00
2023-03-18T18:08:25.545Z,3.80
2023-03-18T18:11:03.051Z,3.93
2023-03-18T18:13:29.607Z,4.83
2023-03-18T18:15:56.009Z,5.23
2023-03-18T18:18:25.370Z,5.73
2023-03-18T18:20:58.095Z,5.27
2023-03-18T18:23:33.310Z,4.87
2023-03-18T18:26:02.978Z,5.43
2023-03-18T18:28:33.114Z,5.77
2023-03-18T18:31:01.388Z,5.57
2023-03-18T18:33:30.291Z,6.80
2023-03-18T18:35:56.952Z,9.00
2023-03-18T18:38:23.795Z,10.50
2023-03-18T18:40:51.291Z,8.80
2023-03-18T18:43:17.717Z,9.00
2023-03-18T18:45:44.126Z,11.20
2023-03-18T18:48:35.211Z,10.30
2023-03-18T18:51:04.149Z,10.07
2023-03-18T18:53:36.553Z,10.00
2023-03-18T18:56:20.343Z,9.50
2023-03-18T18:58:48.227Z,9.83
2023-03-18T19:01:15.335Z,8.37
2023-03-18T19:03:42.639Z,8.70
2023-03-18T19:06:30.308Z,8.17
2023-03-18T19:08:59.740Z,9.00
2023-03-18T19:11:27.311Z,8.63
2023-03-18T19:13:55.196Z,9.40
2023-03-18T19:16:31.279Z,9.33
2023-03-18T19:18:57.846Z,8.30
2023-03-18T19:21:24.484Z,4.70
2023-03-18T19:23:51.107Z,5.17
2023-03-18T19:26:18.424Z,5.63
2023-03-18T19:28:57.559Z,5.40
2023-03-18T19:31:27.332Z,4.30
2023-03-18T19:33:54.625Z,3.83
2023-03-18T19:36:27.374Z,3.70
2023-03-18T19:38:55.980Z,3.30
2023-03-18T19:41:22.476Z,2.67
2023-03-18T19:43:49.794Z,2.40
2023-03-18T19:46:37.117Z,2.30
2023-03-18T19:49:12.426Z,2.27
2023-03-18T19:51:38.854Z,2.10
2023-03-18T19:54:21.175Z,2.30
2023-03-18T19:56:48.981Z,2.43
2023-03-18T19:59:21.236Z,2.30
2023-03-18T20:01:47.720Z,2.60
2023-03-18T20:04:16.079Z,3.17
2023-03-18T20:06:42.986Z,3.47
2023-03-18T20:09:09.742Z,3.67
2023-03-18T20:11:36.317Z,3.27
2023-03-18T20:14:02.723Z,3.33
2023-03-18T20:16:29.470Z,4.10
2023-03-18T20:18:56.013Z,3.90
2023-03-18T20:21:29.519Z,3.30
2023-03-18T20:24:02.780Z,4.00
2023-03-18T20:26:29.323Z,3.90
2023-03-18T20:28:58.344Z,3.83
2023-03-18T20:31:24.790Z,3.10
2023-03-18T20:33:51.217Z,3.50
2023-03-18T20:36:19.503Z,3.43
2023-03-18T20:38:48.799Z,3.23
2023-03-18T20:41:19.965Z,3.47
2023-03-18T20:43:50.005Z,5.03
2023-03-18T20:46:17.117Z,7.03
2023-03-18T20:48:44.316Z,6.73
2023-03-18T20:51:20.864Z,5.97
2023-03-18T20:53:48.268Z,6.80
2023-03-18T20:56:15.443Z,4.97
2023-03-18T20:58:42.222Z,5.40
2023-03-18T21:01:12.637Z,5.53
2023-03-18T21:03:39.749Z,5.50
2023-03-18T21:06:06.875Z,6.00
2023-03-18T21:08:33.900Z,5.90
2023-03-18T21:11:02.102Z,6.00
2023-03-18T21:13:39.446Z,5.53
2023-03-18T21:16:14.357Z,5.67
2023-03-18T21:18:43.619Z,5.90
2023-03-18T21:21:23.653Z,5.97
2023-03-18T21:23:51.862Z,6.00
2023-03-18T21:26:18.607Z,7.93
2023-03-18T21:28:45.239Z,9.87
2023-03-18T21:31:34.535Z,15.67
2023-03-18T21:34:01.036Z,11.77
2023-03-18T21:36:27.832Z,11.07
2023-03-18T21:38:54.320Z,11.50
2023-03-18T21:41:24.154Z,9.77
2023-03-18T21:43:50.989Z,7.33
2023-03-18T21:46:20.546Z,6.80
2023-03-18T21:48:47.309Z,7.43
2023-03-18T21:51:37.652Z,7.87
2023-03-18T21:54:06.296Z,8.17
2023-03-18T21:56:32.827Z,8.00
2023-03-18T21:58:59.388Z,8.17
2023-03-18T22:01:32.014Z,7.20
2023-03-18T22:03:59.398Z,7.57
2023-03-18T22:06:25.906Z,8.10
2023-03-18T22:08:52.418Z,7.37
2023-03-18T22:11:21.966Z,6.40
2023-03-18T22:13:49.462Z,6.70
2023-03-18T22:16:17.800Z,5.73
2023-03-18T22:18:45.809Z,5.90
2023-03-18T22:21:19.106Z,6.53
2023-03-18T22:23:45.625Z,7.97
2023-03-18T22:26:15.604Z,7.67
2023-03-18T22:28:42.473Z,8.00
2023-03-18T22:31:36.078Z,7.20
2023-03-18T22:34:03.399Z,8.50
2023-03-18T22:36:29.834Z,8.57
2023-03-18T22:38:56.423Z,8.10
2023-03-18T22:41:29.134Z,8.20
2023-03-18T22:43:57.401Z,8.93
2023-03-18T22:46:23.894Z,8.30
2023-03-18T22:48:50.399Z,7.73
2023-03-18T22:51:27.411Z,8.90
2023-03-18T22:53:54.315Z,8.63
2023-03-18T22:56:22.168Z,8.17
2023-03-18T22:58:49.210Z,8.77
2023-03-18T23:01:18.516Z,8.50
2023-03-18T23:03:47.278Z,7.40
2023-03-18T23:06:17.525Z,8.00
2023-03-18T23:08:45.597Z,7.20
2023-03-18T23:11:13.386Z,7.00
2023-03-18T23:13:42.739Z,7.40
2023-03-18T23:16:15.735Z,7.40
2023-03-18T23:18:42.717Z,7.10
2023-03-18T23:21:16.810Z,6.50
2023-03-18T23:23:43.350Z,6.40
2023-03-18T23:26:10.003Z,6.60
2023-03-18T23:28:44.150Z,6.93
2023-03-18T23:31:12.693Z,7.27
2023-03-18T23:33:39.178Z,6.40
2023-03-18T23:36:05.931Z,7.50
2023-03-18T23:38:32.411Z,6.00
2023-03-18T23:40:58.860Z,6.53
2023-03-18T23:43:25.667Z,7.30
2023-03-18T23:45:52.312Z,6.73
2023-03-18T23:48:18.819Z,6.00
2023-03-18T23:50:46.024Z,6.07
2023-03-18T23:53:12.671Z,5.87
2023-03-18T23:55:39.154Z,6.13
2023-03-18T23:58:05.715Z,5.77
